CheckWX is a tool to help pilots better visualize weather data.  It is not intended as a substitute for an official pre-flight weather briefing.

05:30:27 UTC

LTCI TAF
Van Ferit Melen Airport
Van, Turkey
TAF LTCI 200140Z 2003/2012 09008KT 9999 FEW040

Feb-20@
03:00 UTC

Feb-20 @ 03:00 UTC

Feb-20@
12:00 UTC

Feb-20 @ 12:00 UTC

TAF LTCI 200140Z 2003/2012 09008KT 9999 FEW040
Wind
  • 090° at 8 KTS
Visibility
10,000+ meters
Cloud Levels
  • Few at 4,000' AGL